Time;durP1;ratioP1;P1;durP2;ratioP2;P2;SDS_P1;SDS_P2;PMS_P1;PMS_P2;Temp;Humidity;BMP_temperature;BMP_pressure;BME280_temperature;BME280_humidity;BME280_pressure;Samples;Min_cycle;Max_cycle;Signal;HPM_P1;HPM_P2
2022/01/16 00:00:52;;;;;;;;;;;;;;;11.91;54.25;101558.34;4979351;27;128355;-56
2022/01/16 00:06:02;;;;;;;;;;;;;;;11.90;54.52;101569.38;4982442;27;97850;-57
2022/01/16 00:08:28;;;;;;;;;;;;;;;11.88;54.50;101558.03;4982575;27;111849;-57
2022/01/16 00:10:54;;;;;;;;;;;;;;;11.87;54.42;101550.97;4981563;28;128228;-56
2022/01/16 00:13:20;;;;;;;;;;;;;;;11.87;54.50;101562.63;4981848;28;123301;-64
2022/01/16 00:15:46;;;;;;;;;;;;;;;11.85;54.50;101570.13;4982407;28;107016;-65
2022/01/16 00:18:30;;;;;;;;;;;;;;;11.85;54.41;101580.94;4982845;27;112782;-57
2022/01/16 00:20:56;;;;;;;;;;;;;;;11.84;54.41;101590.13;4983647;27;98539;-56
2022/01/16 00:23:27;;;;;;;;;;;;;;;11.83;54.40;101552.50;4990132;28;127450;-56
2022/01/16 00:25:54;;;;;;;;;;;;;;;11.82;54.36;101526.56;4982215;27;97770;-64
2022/01/16 00:28:20;;;;;;;;;;;;;;;11.79;54.03;101528.72;4981074;28;98046;-64
2022/01/16 00:30:46;;;;;;;;;;;;;;;11.80;54.13;101540.31;4979531;28;98348;-56
2022/01/16 00:33:13;;;;;;;;;;;;;;;11.79;54.02;101527.91;4981270;27;99590;-64
2022/01/16 00:35:39;;;;;;;;;;;;;;;11.78;54.02;101551.38;4981619;27;98009;-56
2022/01/16 00:38:05;;;;;;;;;;;;;;;11.77;54.31;101546.22;4982784;27;105076;-56
2022/01/16 00:40:31;;;;;;;;;;;;;;;11.76;54.15;101531.09;4982187;27;97879;-64
2022/01/16 00:42:57;;;;;;;;;;;;;;;11.75;54.00;101537.53;4982117;28;98402;-57
2022/01/16 00:45:28;;;;;;;;;;;;;;;11.74;54.26;101525.09;4979980;27;128319;-58
2022/01/16 00:47:54;;;;;;;;;;;;;;;11.72;53.87;101508.34;4983719;28;97866;-57
2022/01/16 00:50:20;;;;;;;;;;;;;;;11.72;54.04;101505.66;4980470;27;128698;-57
2022/01/16 00:52:46;;;;;;;;;;;;;;;11.71;54.08;101514.78;4982409;28;98641;-56
2022/01/16 00:55:12;;;;;;;;;;;;;;;11.71;54.26;101512.94;4980832;27;127433;-64
2022/01/16 00:57:38;;;;;;;;;;;;;;;11.70;54.11;101499.66;4981696;27;111309;-56
2022/01/16 01:00:05;;;;;;;;;;;;;;;11.69;53.89;101508.84;4979740;28;128177;-64
2022/01/16 01:02:31;;;;;;;;;;;;;;;11.68;53.95;101526.94;4981374;27;121671;-57
2022/01/16 01:04:56;;;;;;;;;;;;;;;11.66;53.98;101526.34;4980639;27;127714;-57
2022/01/16 01:07:22;;;;;;;;;;;;;;;11.66;54.24;101520.13;4981336;27;112162;-64
2022/01/16 01:09:48;;;;;;;;;;;;;;;11.66;54.06;101517.44;4978548;28;117605;-65
2022/01/16 01:12:25;;;;;;;;;;;;;;;11.65;53.85;101494.19;4982904;28;104619;-64
2022/01/16 01:15:08;;;;;;;;;;;;;;;11.63;54.01;101490.91;4982265;27;98149;-64
2022/01/16 01:17:45;;;;;;;;;;;;;;;11.62;54.02;101492.00;4982510;27;97679;-65
2022/01/16 01:20:14;;;;;;;;;;;;;;;11.62;53.75;101489.28;4980708;27;98887;-57
2022/01/16 01:22:41;;;;;;;;;;;;;;;11.61;54.06;101496.56;4981929;27;97722;-65
2022/01/16 01:25:08;;;;;;;;;;;;;;;11.59;53.58;101498.69;4980700;27;122230;-56
2022/01/16 01:27:34;;;;;;;;;;;;;;;11.59;53.73;101501.41;4982283;27;97990;-64
2022/01/16 01:30:06;;;;;;;;;;;;;;;11.58;53.85;101510.56;4980929;28;107172;-57
2022/01/16 01:32:33;;;;;;;;;;;;;;;11.57;53.71;101500.84;4982011;27;98467;-56
2022/01/16 01:35:00;;;;;;;;;;;;;;;11.55;53.94;101484.06;4981058;27;99671;-56
2022/01/16 01:37:26;;;;;;;;;;;;;;;11.53;53.77;101487.03;4980773;27;109953;-64
2022/01/16 01:39:52;;;;;;;;;;;;;;;11.53;53.76;101411.41;4981551;28;99071;-56
2022/01/16 01:42:17;;;;;;;;;;;;;;;11.54;53.91;101388.75;4982054;28;127782;-65
2022/01/16 01:52:57;;;;;;;;;;;;;;;11.50;53.65;101408.41;4978185;28;97735;-57
2022/01/16 01:55:24;;;;;;;;;;;;;;;11.48;53.69;101432.97;4980669;28;128067;-57
2022/01/16 01:57:50;;;;;;;;;;;;;;;11.48;53.71;101426.75;4982209;27;98390;-65
2022/01/16 02:00:19;;;;;;;;;;;;;;;11.47;53.90;101455.59;4979914;27;113889;-65
2022/01/16 02:05:20;;;;;;;;;;;;;;;11.45;53.38;101436.16;4979403;27;98287;-64
2022/01/16 02:07:46;;;;;;;;;;;;;;;11.44;53.45;101431.81;4977715;28;114173;-65
2022/01/16 02:10:12;;;;;;;;;;;;;;;11.43;54.02;101438.28;4980252;28;110878;-65
2022/01/16 02:12:43;;;;;;;;;;;;;;;11.42;53.80;101417.75;4979873;28;128388;-56
2022/01/16 02:15:35;;;;;;;;;;;;;;;11.41;53.36;101405.31;4981055;27;97971;-64
2022/01/16 02:30:19;;;;;;;;;;;;;;;11.37;53.63;101406.88;4978705;28;98887;-56
2022/01/16 02:34:40;;;;;;;;;;;;;;;11.36;53.69;101420.63;4978834;27;98364;-56
2022/01/16 02:37:09;;;;;;;;;;;;;;;11.34;53.23;101412.78;4979434;27;98254;-64
2022/01/16 02:39:37;;;;;;;;;;;;;;;11.32;53.70;101406.84;4976580;28;97712;-56
2022/01/16 02:42:07;;;;;;;;;;;;;;;11.31;53.33;101397.88;4980080;28;98376;-56
2022/01/16 02:44:47;;;;;;;;;;;;;;;11.31;53.76;101387.09;4977754;28;99063;-65
2022/01/16 02:47:17;;;;;;;;;;;;;;;11.30;53.34;101381.97;4981552;28;98270;-56
2022/01/16 02:49:47;;;;;;;;;;;;;;;11.29;53.29;101378.44;4981010;27;97934;-64
2022/01/16 02:52:14;;;;;;;;;;;;;;;11.28;53.14;101370.59;4981398;28;98015;-64
2022/01/16 02:54:41;;;;;;;;;;;;;;;11.27;53.36;101363.56;4979383;28;124185;-57
2022/01/16 02:57:09;;;;;;;;;;;;;;;11.26;53.61;101370.84;4981693;27;98083;-65
2022/01/16 02:59:35;;;;;;;;;;;;;;;11.25;53.08;101366.53;4982085;28;97718;-56
2022/01/16 03:02:01;;;;;;;;;;;;;;;11.24;53.23;101361.38;4983455;27;123425;-57
2022/01/16 03:04:28;;;;;;;;;;;;;;;11.24;53.24;101362.19;4982342;28;102388;-64
2022/01/16 03:06:54;;;;;;;;;;;;;;;11.23;53.07;101359.72;4983809;27;98379;-65
2022/01/16 03:09:21;;;;;;;;;;;;;;;11.22;53.71;101340.03;4983955;27;98088;-56
2022/01/16 03:11:49;;;;;;;;;;;;;;;11.21;53.70;101338.41;4984100;28;98486;-63
2022/01/16 03:14:19;;;;;;;;;;;;;;;11.20;53.26;101322.44;5015749;27;98403;-65
2022/01/16 03:16:49;;;;;;;;;;;;;;;11.20;53.60;101314.34;4982985;28;98543;-64
2022/01/16 03:22:03;;;;;;;;;;;;;;;11.16;53.54;101292.47;4980768;28;97989;-64
2022/01/16 03:24:31;;;;;;;;;;;;;;;11.18;52.97;101287.63;4980757;28;99117;-64
2022/01/16 03:27:07;;;;;;;;;;;;;;;11.18;53.15;101297.59;4982684;28;119408;-56
2022/01/16 03:29:32;;;;;;;;;;;;;;;11.16;53.56;101292.47;4983496;27;97864;-64
2022/01/16 03:31:59;;;;;;;;;;;;;;;11.15;53.04;101290.81;4982921;28;111654;-57
2022/01/16 03:34:25;;;;;;;;;;;;;;;11.16;52.85;101283.53;4983426;27;109860;-56
2022/01/16 03:36:51;;;;;;;;;;;;;;;11.16;53.48;101278.13;4983231;28;111998;-56
2022/01/16 03:39:17;;;;;;;;;;;;;;;11.15;52.92;101273.81;4983043;27;105337;-64
2022/01/16 03:41:43;;;;;;;;;;;;;;;11.15;53.32;101274.63;4981416;28;98696;-64
2022/01/16 03:44:09;;;;;;;;;;;;;;;11.15;53.00;101271.13;4984255;28;99035;-56
2022/01/16 03:46:37;;;;;;;;;;;;;;;11.15;53.20;101260.31;4981399;28;128499;-64
2022/01/16 03:49:13;;;;;;;;;;;;;;;11.14;53.57;101245.19;4984406;28;97801;-57
2022/01/16 03:51:40;;;;;;;;;;;;;;;11.14;53.02;101254.09;4982570;27;98584;-65
2022/01/16 03:54:06;;;;;;;;;;;;;;;11.14;52.93;101251.41;4982847;27;98625;-64
2022/01/16 03:56:32;;;;;;;;;;;;;;;11.14;52.88;101245.19;4982329;27;121643;-65
2022/01/16 03:58:58;;;;;;;;;;;;;;;11.13;53.18;101235.50;4982833;27;106074;-56
2022/01/16 04:01:24;;;;;;;;;;;;;;;11.13;53.29;101236.28;4980969;27;128329;-64
2022/01/16 04:03:51;;;;;;;;;;;;;;;11.12;52.77;101225.75;4982471;27;98140;-64
2022/01/16 04:06:19;;;;;;;;;;;;;;;11.12;53.45;101226.59;4983126;28;98014;-56
2022/01/16 04:08:46;;;;;;;;;;;;;;;11.13;53.01;101219.28;4983425;27;97900;-64
2022/01/16 04:11:12;;;;;;;;;;;;;;;11.12;53.28;101220.34;4982086;28;114356;-64
2022/01/16 04:13:47;;;;;;;;;;;;;;;11.12;53.40;101223.03;4964291;28;98474;-64
2022/01/16 04:16:13;;;;;;;;;;;;;;;11.11;52.71;101222.22;4982747;27;97864;-64
2022/01/16 04:18:39;;;;;;;;;;;;;;;11.11;52.76;101213.31;4981616;28;103669;-64
2022/01/16 04:21:05;;;;;;;;;;;;;;;11.10;53.23;101206.31;4981277;28;128630;-56
2022/01/16 04:23:31;;;;;;;;;;;;;;;11.11;53.38;101213.31;4982081;27;98514;-64
2022/01/16 04:25:57;;;;;;;;;;;;;;;11.10;53.22;101206.31;4980420;27;107428;-64
2022/01/16 04:28:24;;;;;;;;;;;;;;;11.10;53.31;101206.31;4980670;28;112108;-56
2022/01/16 04:30:51;;;;;;;;;;;;;;;11.09;53.42;101213.59;4981353;27;98292;-64
2022/01/16 04:33:17;;;;;;;;;;;;;;;11.07;53.05;101208.41;4983739;27;99014;-56
2022/01/16 04:35:43;;;;;;;;;;;;;;;11.07;52.70;101203.03;4982284;27;117577;-65
2022/01/16 04:38:09;;;;;;;;;;;;;;;11.09;53.33;101201.97;4982964;27;113253;-64
2022/01/16 04:40:45;;;;;;;;;;;;;;;11.09;53.16;101196.59;4981158;28;128145;-65
2022/01/16 04:45:57;;;;;;;;;;;;;;;11.06;52.91;101187.91;4982352;28;99179;-64
2022/01/16 04:48:23;;;;;;;;;;;;;;;11.05;52.96;101189.00;4983130;27;98131;-65
2022/01/16 04:50:48;;;;;;;;;;;;;;;11.04;52.77;101194.63;4981165;27;127893;-57
2022/01/16 04:53:14;;;;;;;;;;;;;;;11.04;52.95;101192.75;4981420;28;128841;-57
2022/01/16 04:55:42;;;;;;;;;;;;;;;11.03;53.03;101182.22;4980449;27;119894;-64
2022/01/16 04:58:08;;;;;;;;;;;;;;;11.01;52.96;101177.06;4983389;27;97734;-66
2022/01/16 05:00:33;;;;;;;;;;;;;;;11.02;52.96;101175.19;4981242;28;127991;-56
2022/01/16 05:02:59;;;;;;;;;;;;;;;11.01;52.85;101166.28;4980310;28;127373;-65
2022/01/16 05:05:25;;;;;;;;;;;;;;;11.00;53.00;101172.75;4981297;27;98283;-56
2022/01/16 05:07:51;;;;;;;;;;;;;;;11.00;52.81;101166.53;4981757;27;112644;-64
2022/01/16 05:10:17;;;;;;;;;;;;;;;10.99;52.74;101164.91;4980430;27;128477;-64
2022/01/16 05:12:46;;;;;;;;;;;;;;;10.97;53.27;101167.03;4982685;28;98818;-56
2022/01/16 05:17:57;;;;;;;;;;;;;;;10.96;52.73;101160.81;4978825;28;97790;-64
2022/01/16 05:20:23;;;;;;;;;;;;;;;10.95;52.96;101158.38;4979897;27;124199;-64
2022/01/16 05:22:49;;;;;;;;;;;;;;;10.94;52.45;101154.06;4982210;27;98327;-64
2022/01/16 05:25:17;;;;;;;;;;;;;;;10.93;52.80;101147.03;4980522;28;127302;-63
2022/01/16 05:27:43;;;;;;;;;;;;;;;10.92;52.97;101143.50;4982754;27;97978;-56
2022/01/16 05:30:09;;;;;;;;;;;;;;;10.92;52.95;101137.31;4980750;28;98923;-65
2022/01/16 05:32:35;;;;;;;;;;;;;;;10.90;53.06;101134.06;4981857;27;98296;-64
2022/01/16 05:35:01;;;;;;;;;;;;;;;10.91;52.65;101135.69;4980491;28;127033;-57
2022/01/16 05:37:27;;;;;;;;;;;;;;;10.89;52.81;101141.34;4981246;27;112575;-64
2022/01/16 05:39:53;;;;;;;;;;;;;;;10.88;52.37;101134.28;4980921;27;98234;-56
2022/01/16 05:42:19;;;;;;;;;;;;;;;10.88;52.77;101126.19;4981001;28;119329;-56
2022/01/16 05:44:45;;;;;;;;;;;;;;;10.87;52.58;101121.06;4980750;28;98051;-64
2022/01/16 05:47:12;;;;;;;;;;;;;;;10.86;52.39;101117.56;4982261;27;111535;-57
2022/01/16 05:49:40;;;;;;;;;;;;;;;10.85;52.86;101124.03;4980986;27;99426;-57
2022/01/16 05:52:06;;;;;;;;;;;;;;;10.85;52.65;101128.63;4980871;27;97830;-65
2022/01/16 05:54:33;;;;;;;;;;;;;;;10.85;52.62;101123.22;4980634;28;123757;-64
2022/01/16 05:56:59;;;;;;;;;;;;;;;10.83;52.70;101128.84;4981291;28;104695;-64
2022/01/16 05:59:25;;;;;;;;;;;;;;;10.82;52.71;101125.34;4980850;28;112955;-64
2022/01/16 06:01:51;;;;;;;;;;;;;;;10.81;52.48;101128.31;4980442;28;125061;-64
2022/01/16 06:04:17;;;;;;;;;;;;;;;10.80;52.65;101121.25;4980318;28;126829;-64
2022/01/16 06:06:43;;;;;;;;;;;;;;;10.79;52.67;101125.03;4981107;28;98075;-65
2022/01/16 06:09:08;;;;;;;;;;;;;;;10.78;52.50;101115.31;4980638;28;100850;-64
2022/01/16 06:11:34;;;;;;;;;;;;;;;10.77;52.77;101119.91;4980039;28;128154;-64
2022/01/16 06:14:00;;;;;;;;;;;;;;;10.76;52.85;101123.63;4980463;28;126525;-64
2022/01/16 06:16:26;;;;;;;;;;;;;;;10.75;52.45;101111.22;4980679;27;113047;-65
2022/01/16 06:18:53;;;;;;;;;;;;;;;10.75;52.53;101111.22;4981300;28;101208;-64
2022/01/16 06:21:19;;;;;;;;;;;;;;;10.74;52.51;101106.09;4980708;27;98266;-64
2022/01/16 06:23:45;;;;;;;;;;;;;;;10.73;52.84;101113.38;4980205;27;126482;-65
2022/01/16 06:26:11;;;;;;;;;;;;;;;10.73;52.72;101116.09;4980942;27;97903;-64
2022/01/16 06:28:37;;;;;;;;;;;;;;;10.72;51.99;101109.03;4980406;28;127064;-64
2022/01/16 06:31:02;;;;;;;;;;;;;;;10.71;52.27;101115.50;4978348;27;128955;-64
2022/01/16 06:33:28;;;;;;;;;;;;;;;10.71;52.24;101117.38;4982082;27;126340;-64
2022/01/16 06:35:54;;;;;;;;;;;;;;;10.71;52.57;101120.91;4984223;27;98240;-65
2022/01/16 06:38:20;;;;;;;;;;;;;;;10.71;52.51;101120.09;4982032;28;121374;-64
2022/01/16 06:40:46;;;;;;;;;;;;;;;10.71;52.42;101114.69;4982758;28;120103;-64
2022/01/16 06:43:12;;;;;;;;;;;;;;;10.71;52.56;101114.69;4983366;28;128238;-64
2022/01/16 06:45:38;;;;;;;;;;;;;;;10.69;52.52;101117.66;4982692;27;112619;-65
2022/01/16 06:48:04;;;;;;;;;;;;;;;10.70;52.41;101121.97;4984829;28;98259;-64
2022/01/16 06:50:30;;;;;;;;;;;;;;;10.71;52.39;101133.56;4982412;27;124008;-65
2022/01/16 06:52:56;;;;;;;;;;;;;;;10.71;52.01;101138.97;4982134;28;127260;-64
2022/01/16 06:55:22;;;;;;;;;;;;;;;10.72;52.64;101140.59;4984095;27;98410;-65
2022/01/16 06:57:48;;;;;;;;;;;;;;;10.73;52.11;101145.75;4983558;28;125483;-65
2022/01/16 07:00:14;;;;;;;;;;;;;;;10.72;52.36;101137.88;4982839;28;127195;-64
2022/01/16 07:02:40;;;;;;;;;;;;;;;10.73;52.51;101142.22;4982567;28;118447;-64
2022/01/16 07:05:06;;;;;;;;;;;;;;;10.73;52.41;101131.44;4982397;27;112840;-64
2022/01/16 07:07:32;;;;;;;;;;;;;;;10.74;52.50;101138.47;4980770;27;98718;-66
2022/01/16 07:09:58;;;;;;;;;;;;;;;10.74;52.60;101131.19;4957649;28;128428;-65
2022/01/16 07:12:24;;;;;;;;;;;;;;;10.76;52.05;101133.63;4980673;28;98235;-65
2022/01/16 07:14:50;;;;;;;;;;;;;;;10.77;52.46;101138.78;4979301;27;111810;-64
2022/01/16 07:17:15;;;;;;;;;;;;;;;10.79;52.21;101139.31;4979590;28;101968;-64
2022/01/16 07:19:41;;;;;;;;;;;;;;;10.79;51.96;101139.31;4979285;28;127059;-64
2022/01/16 07:22:07;;;;;;;;;;;;;;;10.82;52.16;101138.00;4979199;28;127812;-56
2022/01/16 07:24:33;;;;;;;;;;;;;;;10.84;52.44;101138.56;4979707;28;112446;-64
2022/01/16 07:27:00;;;;;;;;;;;;;;;10.86;51.90;101149.94;4979825;28;127231;-56
2022/01/16 07:29:27;;;;;;;;;;;;;;;10.88;51.86;101144.28;4980658;28;98351;-56
2022/01/16 07:31:53;;;;;;;;;;;;;;;10.90;51.87;101148.34;4980273;28;97966;-64
2022/01/16 07:34:19;;;;;;;;;;;;;;;10.93;52.39;101153.25;4979391;27;113826;-56
2022/01/16 07:36:45;;;;;;;;;;;;;;;10.97;52.07;101153.56;4978834;28;127056;-64
2022/01/16 07:39:11;;;;;;;;;;;;;;;11.00;51.89;101156.56;4979655;28;98881;-56
2022/01/16 07:41:37;;;;;;;;;;;;;;;11.06;52.03;101142.03;4980688;28;98540;-56
2022/01/16 07:44:03;;;;;;;;;;;;;;;11.10;52.03;101139.66;4977952;28;98098;-56
2022/01/16 07:46:29;;;;;;;;;;;;;;;11.14;51.88;101148.06;4977326;27;99517;-56
2022/01/16 07:48:55;;;;;;;;;;;;;;;11.20;51.85;101149.72;4978263;27;98144;-56
2022/01/16 07:51:21;;;;;;;;;;;;;;;11.25;51.71;101158.72;4977607;27;99428;-56
2022/01/16 07:53:47;;;;;;;;;;;;;;;11.31;51.99;101168.47;4979134;28;97837;-56
2022/01/16 07:56:13;;;;;;;;;;;;;;;11.38;51.76;101172.84;4979091;28;98731;-56
2022/01/16 07:58:41;;;;;;;;;;;;;;;11.45;51.86;101162.66;4979192;28;98308;-56
2022/01/16 08:01:07;;;;;;;;;;;;;;;11.53;51.49;101165.72;4978570;27;98287;-56
2022/01/16 08:03:33;;;;;;;;;;;;;;;11.60;51.45;101170.09;4978765;28;113006;-56
2022/01/16 08:05:59;;;;;;;;;;;;;;;11.68;51.72;101169.63;4977107;27;128369;-56
2022/01/16 08:08:25;;;;;;;;;;;;;;;11.81;51.69;101171.88;4977471;28;127597;-56
2022/01/16 08:10:51;;;;;;;;;;;;;;;11.92;51.60;101159.31;4976773;28;127801;-57
2022/01/16 08:13:17;;;;;;;;;;;;;;;12.05;51.33;101158.84;4978850;28;98013;-56
2022/01/16 08:15:43;;;;;;;;;;;;;;;12.22;51.05;101167.63;4976378;27;129977;-56
2022/01/16 08:18:10;;;;;;;;;;;;;;;12.56;50.74;101163.72;4977899;28;99243;-57
2022/01/16 08:20:36;;;;;;;;;;;;;;;12.94;50.37;101166.03;4978768;27;98071;-64
2022/01/16 08:23:02;;;;;;;;;;;;;;;13.23;50.07;101149.34;4978834;27;98020;-64
2022/01/16 08:25:28;;;;;;;;;;;;;;;13.57;49.67;101155.09;4978087;27;99088;-65
2022/01/16 08:27:54;;;;;;;;;;;;;;;13.63;49.75;101148.56;4978363;28;128415;-56
2022/01/16 08:30:20;;;;;;;;;;;;;;;13.58;49.89;101135.03;4979880;28;98171;-64
2022/01/16 08:32:46;;;;;;;;;;;;;;;13.77;49.76;101139.91;4979332;27;97719;-57
2022/01/16 08:35:12;;;;;;;;;;;;;;;13.93;49.97;101136.09;4978353;28;99075;-64
2022/01/16 08:37:38;;;;;;;;;;;;;;;14.23;49.40;101133.31;4977242;28;117554;-57
2022/01/16 08:40:05;;;;;;;;;;;;;;;14.56;49.16;101136.50;4977813;27;99910;-64
2022/01/16 08:42:31;;;;;;;;;;;;;;;15.03;48.19;101129.75;4977033;28;98000;-57
2022/01/16 08:44:57;;;;;;;;;;;;;;;15.86;47.17;101130.75;4978717;28;100963;-65
2022/01/16 08:47:23;;;;;;;;;;;;;;;16.84;45.74;101120.41;4978399;28;120999;-64
2022/01/16 08:49:49;;;;;;;;;;;;;;;16.91;46.00;101131.72;4970414;28;100640;-57
2022/01/16 08:52:15;;;;;;;;;;;;;;;16.88;46.46;101130.41;4978122;27;111861;-57
2022/01/16 08:54:41;;;;;;;;;;;;;;;16.91;46.46;101137.19;4977294;27;103585;-57
2022/01/16 08:57:06;;;;;;;;;;;;;;;16.83;46.83;101135.94;4978116;28;117476;-64
2022/01/16 08:59:32;;;;;;;;;;;;;;;16.86;46.94;101132.63;4975845;27;118836;-64
2022/01/16 09:01:58;;;;;;;;;;;;;;;17.25;46.65;101125.22;4978776;28;100214;-58
2022/01/16 09:04:24;;;;;;;;;;;;;;;17.14;46.93;101117.25;4978219;27;106588;-56
2022/01/16 09:06:50;;;;;;;;;;;;;;;16.91;47.49;101129.81;4978306;28;128461;-65
2022/01/16 09:09:16;;;;;;;;;;;;;;;16.82;47.83;101134.31;4976966;27;127903;-65
2022/01/16 09:11:42;;;;;;;;;;;;;;;16.98;47.78;101139.53;4978834;28;98141;-65
2022/01/16 09:14:08;;;;;;;;;;;;;;;17.25;47.53;101139.69;4977546;28;127939;-65
2022/01/16 09:16:34;;;;;;;;;;;;;;;17.48;47.30;101148.84;4976748;27;129530;-57
2022/01/16 09:19:00;;;;;;;;;;;;;;;17.56;47.59;101141.91;4977643;28;98555;-57
2022/01/16 09:21:26;;;;;;;;;;;;;;;17.78;47.54;101138.59;4977565;27;112718;-57
2022/01/16 09:23:52;;;;;;;;;;;;;;;17.99;47.52;101139.81;4977793;28;128171;-65
2022/01/16 09:26:18;;;;;;;;;;;;;;;18.06;47.64;101139.44;4978951;28;101446;-65
2022/01/16 09:28:44;;;;;;;;;;;;;;;18.06;47.88;101150.34;4977266;28;120185;-57
2022/01/16 09:31:10;;;;;;;;;;;;;;;18.04;47.93;101150.66;4979234;27;97814;-57
2022/01/16 09:33:36;;;;;;;;;;;;;;;18.03;48.03;101149.03;4978360;28;104065;-57
2022/01/16 09:36:03;;;;;;;;;;;;;;;17.95;48.29;101151.63;4979051;27;98205;-65
2022/01/16 09:38:29;;;;;;;;;;;;;;;17.82;48.65;101155.97;4977584;28;120545;-57
2022/01/16 09:40:55;;;;;;;;;;;;;;;17.72;48.89;101145.19;4971585;28;97900;-57
2022/01/16 09:43:21;;;;;;;;;;;;;;;17.63;48.90;101148.59;4970800;27;128509;-65
2022/01/16 09:45:48;;;;;;;;;;;;;;;17.56;48.90;101145.44;4973554;27;123292;-57
2022/01/16 09:48:15;;;;;;;;;;;;;;;17.49;49.08;101149.66;4976436;28;98468;-65
2022/01/16 09:50:41;;;;;;;;;;;;;;;17.41;49.23;101140.25;4975380;27;106758;-64
2022/01/16 09:53:07;;;;;;;;;;;;;;;17.33;49.35;101140.91;4977844;28;128915;-56
2022/01/16 09:55:33;;;;;;;;;;;;;;;17.24;49.54;101137.25;4974483;28;127565;-57
2022/01/16 09:58:00;;;;;;;;;;;;;;;17.16;49.56;101127.81;4978860;27;127492;-57
2022/01/16 10:00:26;;;;;;;;;;;;;;;17.08;49.73;101136.66;4979574;27;97873;-65
2022/01/16 10:02:53;;;;;;;;;;;;;;;16.99;49.87;101127.53;4977479;27;98805;-64
2022/01/16 10:05:23;;;;;;;;;;;;;;;16.91;49.84;101123.56;4977374;27;98394;-65
2022/01/16 10:07:49;;;;;;;;;;;;;;;16.88;49.83;101118.69;4979755;27;98824;-64
2022/01/16 10:10:15;;;;;;;;;;;;;;;16.86;49.77;101099.16;4981362;27;111791;-57
2022/01/16 10:12:47;;;;;;;;;;;;;;;16.86;49.83;101090.97;4985489;27;119994;-64
2022/01/16 10:15:20;;;;;;;;;;;;;;;16.88;49.79;101080.59;4981421;27;98787;-57
2022/01/16 10:17:47;;;;;;;;;;;;;;;16.93;49.71;101083.22;4977896;28;97997;-57
2022/01/16 10:20:16;;;;;;;;;;;;;;;16.90;49.64;101083.84;4981550;27;97909;-65
2022/01/16 10:22:50;;;;;;;;;;;;;;;16.91;49.76;101091.69;4981988;28;98218;-65
2022/01/16 10:25:17;;;;;;;;;;;;;;;16.88;49.76;101083.31;4981366;27;98396;-64
2022/01/16 10:27:45;;;;;;;;;;;;;;;16.82;49.70;101081.75;4981066;28;99804;-65
2022/01/16 10:30:14;;;;;;;;;;;;;;;16.76;49.83;101081.03;4979759;27;97856;-57
2022/01/16 10:32:44;;;;;;;;;;;;;;;16.72;49.89;101081.88;4980157;27;98552;-65
2022/01/16 10:35:18;;;;;;;;;;;;;;;16.66;50.00;101081.13;4981999;27;98372;-65
2022/01/16 10:37:52;;;;;;;;;;;;;;;16.63;50.12;101073.56;4979875;27;98074;-66
2022/01/16 10:40:32;;;;;;;;;;;;;;;16.60;50.13;101071.44;4980797;27;97928;-65
2022/01/16 10:43:05;;;;;;;;;;;;;;;16.57;50.11;101061.94;4979344;27;98025;-63
2022/01/16 10:45:32;;;;;;;;;;;;;;;16.54;50.34;101061.69;4979989;27;98494;-66
2022/01/16 10:48:01;;;;;;;;;;;;;;;16.56;50.00;101063.03;4979324;28;121934;-65
2022/01/16 10:50:33;;;;;;;;;;;;;;;16.58;50.15;101068.19;4979754;27;97871;-65
2022/01/16 10:53:07;;;;;;;;;;;;;;;16.56;50.20;101056.78;4979942;27;98681;-64
2022/01/16 10:55:41;;;;;;;;;;;;;;;16.56;50.05;101059.50;4971696;27;99142;-66
2022/01/16 10:58:13;;;;;;;;;;;;;;;16.55;50.11;101066.06;4979770;27;97862;-65
2022/01/16 11:00:42;;;;;;;;;;;;;;;16.58;49.99;101062.72;4980239;27;98013;-64
2022/01/16 11:03:08;;;;;;;;;;;;;;;16.57;49.95;101064.66;4979265;27;99303;-65
2022/01/16 11:05:40;;;;;;;;;;;;;;;16.48;50.23;101071.84;4979047;27;99550;-64
2022/01/16 11:08:12;;;;;;;;;;;;;;;16.39;50.43;101085.31;4979102;28;97954;-65
2022/01/16 11:10:45;;;;;;;;;;;;;;;16.37;50.43;101086.69;4980879;27;98811;-64
2022/01/16 11:13:12;;;;;;;;;;;;;;;16.28;50.42;101088.44;4980393;28;98624;-65
2022/01/16 11:15:40;;;;;;;;;;;;;;;16.18;50.72;101089.34;4978634;27;98236;-65
2022/01/16 11:18:06;;;;;;;;;;;;;;;16.09;50.69;101104.69;4979839;27;98264;-65
2022/01/16 11:20:37;;;;;;;;;;;;;;;15.98;50.76;101100.47;4979661;27;97994;-64
2022/01/16 11:23:29;;;;;;;;;;;;;;;15.86;50.76;101104.38;4973887;27;98184;-64
2022/01/16 11:25:58;;;;;;;;;;;;;;;15.77;51.13;101110.72;4978371;27;99474;-64
2022/01/16 11:28:24;;;;;;;;;;;;;;;15.65;51.25;101105.69;4984357;27;115682;-64
2022/01/16 11:30:53;;;;;;;;;;;;;;;15.54;51.56;101106.81;4978382;27;116787;-64
2022/01/16 11:33:19;;;;;;;;;;;;;;;15.42;51.48;101110.72;4977669;27;121731;-65
2022/01/16 11:35:47;;;;;;;;;;;;;;;15.34;51.67;101107.81;4979280;27;117661;-65
2022/01/16 11:38:13;;;;;;;;;;;;;;;15.24;51.43;101100.53;4988264;28;111650;-65
2022/01/16 11:40:45;;;;;;;;;;;;;;;15.17;51.78;101113.66;4979993;27;98174;-56
2022/01/16 11:43:19;;;;;;;;;;;;;;;15.09;51.84;101116.94;4978565;27;98441;-65
2022/01/16 11:46:08;;;;;;;;;;;;;;;15.03;51.92;101120.78;4978514;27;110480;-57
2022/01/16 11:48:39;;;;;;;;;;;;;;;14.94;51.75;101112.44;4978972;27;97738;-57
2022/01/16 11:51:26;;;;;;;;;;;;;;;14.88;52.18;101113.53;4979148;27;97854;-56
2022/01/16 11:53:58;;;;;;;;;;;;;;;14.81;52.23;101123.88;4978084;28;99472;-57
2022/01/16 11:56:39;;;;;;;;;;;;;;;14.72;51.97;101116.34;4977311;27;98214;-57
2022/01/16 11:59:15;;;;;;;;;;;;;;;14.65;52.39;101120.44;4978525;28;98762;-66
2022/01/16 12:02:07;;;;;;;;;;;;;;;14.59;52.41;101121.56;4978980;27;98294;-56
2022/01/16 12:04:33;;;;;;;;;;;;;;;14.53;52.37;101111.81;4953523;27;100335;-64
2022/01/16 12:07:15;;;;;;;;;;;;;;;14.49;52.40;101111.56;4978487;27;99927;-64
2022/01/16 12:12:13;;;;;;;;;;;;;;;14.40;52.17;101116.72;4975779;28;97853;-65
2022/01/16 12:15:01;;;;;;;;;;;;;;;14.35;52.34;101124.88;4978275;28;99064;-56
2022/01/16 12:17:30;;;;;;;;;;;;;;;14.30;52.50;101124.88;4982557;27;98739;-56
2022/01/16 12:19:56;;;;;;;;;;;;;;;14.27;52.34;101130.06;4977991;27;98132;-65
2022/01/16 12:22:41;;;;;;;;;;;;;;;14.23;52.36;101137.94;4973335;27;98227;-57
2022/01/16 12:25:17;;;;;;;;;;;;;;;14.18;52.45;101130.59;4977640;28;98794;-65
2022/01/16 12:27:45;;;;;;;;;;;;;;;14.14;52.72;101134.94;4977881;28;107051;-57
2022/01/16 12:30:32;;;;;;;;;;;;;;;14.13;52.33;101130.63;4970887;27;98649;-65
2022/01/16 12:33:09;;;;;;;;;;;;;;;14.07;52.64;101131.75;4972801;28;97938;-56
2022/01/16 12:35:50;;;;;;;;;;;;;;;14.00;52.77;101129.31;4978210;28;97866;-56
2022/01/16 12:38:22;;;;;;;;;;;;;;;13.96;52.78;101135.56;4978122;28;98287;-56
2022/01/16 12:41:00;;;;;;;;;;;;;;;13.91;52.83;101139.09;4977877;27;98065;-57
2022/01/16 12:45:52;;;;;;;;;;;;;;;13.84;52.68;101135.84;4971639;28;98427;-64
2022/01/16 12:48:18;;;;;;;;;;;;;;;13.82;52.89;101145.31;4977792;28;128607;-64
2022/01/16 12:50:44;;;;;;;;;;;;;;;13.79;52.79;101149.38;4976514;27;127475;-64
2022/01/16 12:53:11;;;;;;;;;;;;;;;13.73;53.07;101164.84;4977556;28;117434;-65
2022/01/16 12:55:37;;;;;;;;;;;;;;;13.69;53.24;101163.75;4977222;27;98951;-56
2022/01/16 12:58:19;;;;;;;;;;;;;;;13.66;53.12;101155.34;4976351;28;129478;-65
2022/01/16 13:01:01;;;;;;;;;;;;;;;13.61;53.02;101158.88;4977007;27;98755;-65
2022/01/16 13:03:28;;;;;;;;;;;;;;;13.59;53.16;101162.94;4977808;28;98192;-57
2022/01/16 13:06:39;;;;;;;;;;;;;;;13.56;53.05;101152.63;4976525;27;109247;-57
2022/01/16 13:09:06;;;;;;;;;;;;;;;13.51;52.98;101158.84;4973960;27;99074;-65
2022/01/16 13:11:37;;;;;;;;;;;;;;;13.50;53.23;101149.13;4978131;27;97865;-56
2022/01/16 13:14:04;;;;;;;;;;;;;;;13.47;53.29;101147.75;4977892;27;97985;-65
2022/01/16 13:16:32;;;;;;;;;;;;;;;13.44;53.22;101156.44;4977164;27;118658;-56
2022/01/16 13:19:22;;;;;;;;;;;;;;;13.43;52.94;101145.84;4976640;28;98767;-56